Terminal Aerodrome Forecast
Issued by NWS

Home | Current Version | Previous Version | Text Only | Print | Product List | Glossary On
Versions: 1 2 3 4 5 6 7 8 9 10 11 12 13 14 15 16 17 18 19
000
FTUS45 KRIW 062000 CCA
TAFLND
TAF COR
KLND 062052Z 0621/0718 VRB08KT P6SM VCSH SCT020 OVC040
     FM070200 VRB04KT 6SM -RA BKN010 OVC025=

USA.gov is the U.S. government's official web portal to all federal, state and local government web resources and services.